Time;durP1;ratioP1;P1;durP2;ratioP2;P2;SDS_P1;SDS_P2;PMS_P1;PMS_P2;Temp;Humidity;BMP_temperature;BMP_pressure;BME280_temperature;BME280_humidity;BME280_pressure;Samples;Min_cycle;Max_cycle;Signal;HPM_P1;HPM_P2
2021/05/26 00:00:10;;;;;;;6.15;1.48;;;9.50;99.90;;;;;;5043226;28;20511;-70
2021/05/26 00:02:37;;;;;;;3.92;1.00;;;9.50;99.90;;;;;;5042589;28;20105;-70
2021/05/26 00:05:04;;;;;;;3.15;1.20;;;9.50;99.90;;;;;;5042909;28;20390;-70
2021/05/26 00:07:31;;;;;;;4.53;1.33;;;9.50;99.90;;;;;;5043336;28;20052;-70
2021/05/26 00:09:58;;;;;;;3.80;1.45;;;9.50;99.90;;;;;;5046356;28;20048;-69
2021/05/26 00:12:25;;;;;;;3.50;1.23;;;9.50;99.90;;;;;;5046901;28;20440;-72
2021/05/26 00:14:51;;;;;;;5.20;1.20;;;9.40;99.90;;;;;;5048090;28;20121;-70
2021/05/26 00:17:18;;;;;;;2.75;1.00;;;9.40;99.90;;;;;;5045096;28;20400;-69
2021/05/26 00:19:45;;;;;;;3.85;1.20;;;9.40;99.90;;;;;;5048576;28;20051;-70
2021/05/26 00:22:12;;;;;;;3.92;1.38;;;9.50;99.90;;;;;;5045786;28;20141;-70
2021/05/26 00:24:39;;;;;;;1.83;1.05;;;9.40;99.90;;;;;;5048321;28;20051;-69
2021/05/26 00:27:07;;;;;;;2.78;1.10;;;9.60;99.90;;;;;;5046971;28;21115;-70
2021/05/26 00:29:33;;;;;;;8.98;1.95;;;9.50;99.90;;;;;;5046448;28;20057;-69
2021/05/26 00:32:00;;;;;;;10.90;1.52;;;9.70;99.90;;;;;;5045450;28;20049;-70
2021/05/26 00:34:26;;;;;;;5.90;1.17;;;9.50;99.90;;;;;;5045837;28;20113;-70
2021/05/26 00:36:53;;;;;;;8.23;1.35;;;9.60;99.90;;;;;;5044938;28;20733;-70
2021/05/26 00:39:19;;;;;;;4.75;1.17;;;9.60;99.90;;;;;;5045379;28;20056;-70
2021/05/26 00:41:46;;;;;;;5.75;1.17;;;9.60;99.90;;;;;;5046249;28;20055;-70
2021/05/26 00:44:23;;;;;;;2.58;0.90;;;9.50;99.90;;;;;;5045009;28;20055;-69
2021/05/26 00:46:50;;;;;;;6.25;1.20;;;9.60;99.90;;;;;;5047159;28;20137;-70
2021/05/26 00:49:17;;;;;;;5.55;1.27;;;9.50;99.90;;;;;;5047369;28;20127;-69
2021/05/26 00:51:44;;;;;;;3.53;1.13;;;9.50;99.90;;;;;;5047422;28;20048;-69
2021/05/26 00:54:11;;;;;;;5.22;1.30;;;9.50;99.90;;;;;;5047632;28;20158;-69
2021/05/26 00:56:38;;;;;;;3.78;1.17;;;9.40;99.90;;;;;;5042986;28;20142;-70
2021/05/26 00:59:05;;;;;;;4.65;1.35;;;9.40;99.90;;;;;;5044621;28;20051;-69
2021/05/26 01:01:33;;;;;;;4.60;1.33;;;9.40;99.90;;;;;;5046891;28;20892;-69
2021/05/26 01:04:00;;;;;;;5.20;1.55;;;9.40;99.90;;;;;;5048758;28;20052;-70
2021/05/26 01:06:27;;;;;;;3.88;1.23;;;9.40;99.90;;;;;;5043547;28;20475;-69
2021/05/26 01:08:53;;;;;;;3.25;1.00;;;9.40;99.90;;;;;;5045084;28;20504;-69
2021/05/26 01:11:20;;;;;;;3.72;1.20;;;9.30;99.90;;;;;;5048044;28;20059;-70
2021/05/26 01:13:47;;;;;;;6.38;1.38;;;9.50;99.90;;;;;;5046766;28;20138;-70
2021/05/26 01:16:13;;;;;;;4.50;1.42;;;9.40;99.90;;;;;;5046770;28;20075;-70
2021/05/26 01:18:41;;;;;;;3.83;1.30;;;9.40;99.90;;;;;;5041760;28;20043;-69
2021/05/26 01:21:09;;;;;;;3.33;1.17;;;9.40;99.90;;;;;;5044512;28;20048;-69
2021/05/26 01:23:37;;;;;;;4.28;1.50;;;9.40;99.90;;;;;;5044888;28;20044;-69
2021/05/26 01:26:06;;;;;;;3.45;1.55;;;9.30;99.90;;;;;;5045864;28;20061;-70
2021/05/26 01:28:34;;;;;;;4.57;1.13;;;9.30;99.90;;;;;;5044347;28;20052;-69
2021/05/26 01:31:01;;;;;;;5.65;1.30;;;9.40;99.90;;;;;;5048077;28;20044;-69
2021/05/26 01:33:31;;;;;;;3.47;1.33;;;9.50;99.90;;;;;;5045627;28;20472;-70
2021/05/26 01:35:57;;;;;;;4.55;1.05;;;9.70;99.90;;;;;;5048490;28;20568;-70
2021/05/26 01:38:25;;;;;;;5.47;1.40;;;9.70;99.90;;;;;;5041989;28;20048;-69
2021/05/26 01:40:58;;;;;;;4.93;1.38;;;9.60;99.90;;;;;;5043482;28;20052;-69
2021/05/26 01:43:25;;;;;;;2.58;1.10;;;9.60;99.90;;;;;;5045015;28;20467;-69
2021/05/26 01:45:52;;;;;;;3.97;1.52;;;9.70;99.90;;;;;;5041754;28;20052;-70
2021/05/26 01:48:18;;;;;;;6.72;1.27;;;9.70;99.90;;;;;;5042606;28;20056;-69
2021/05/26 01:50:45;;;;;;;5.40;2.15;;;9.70;99.90;;;;;;5044108;28;20044;-68
2021/05/26 01:53:12;;;;;;;4.55;1.42;;;9.70;99.90;;;;;;5043891;28;20052;-70
2021/05/26 01:55:40;;;;;;;5.63;1.90;;;9.70;99.90;;;;;;5041547;28;20801;-69
2021/05/26 01:58:08;;;;;;;2.80;1.00;;;9.70;99.90;;;;;;5043248;28;20044;-69
2021/05/26 02:00:35;;;;;;;3.25;1.38;;;9.70;99.90;;;;;;5045027;28;20119;-70
2021/05/26 02:03:01;;;;;;;4.50;1.05;;;9.70;99.90;;;;;;5043633;28;20048;-69
2021/05/26 02:05:28;;;;;;;6.03;1.20;;;9.70;99.90;;;;;;5042462;28;20052;-69
2021/05/26 02:07:55;;;;;;;4.13;1.02;;;9.70;99.90;;;;;;5044460;28;20048;-69
2021/05/26 02:13:02;;;;;;;1.80;1.00;;;9.70;99.90;;;;;;5043617;28;20036;-69
2021/05/26 02:15:29;;;;;;;;;;;9.80;99.90;;;;;;5047120;28;20056;-69
2021/05/26 02:17:56;;;;;;;5.05;1.30;;;9.70;99.90;;;;;;5042359;28;20411;-69
2021/05/26 02:20:23;;;;;;;4.15;1.30;;;9.70;99.90;;;;;;5042722;28;20052;-69
2021/05/26 02:22:49;;;;;;;6.85;1.60;;;9.70;99.90;;;;;;5043371;28;20408;-69
2021/05/26 02:25:16;;;;;;;2.92;1.10;;;9.70;99.90;;;;;;5044183;28;20048;-69
2021/05/26 02:27:42;;;;;;;6.45;1.20;;;9.70;99.90;;;;;;5041981;28;20044;-69
2021/05/26 02:30:10;;;;;;;4.97;1.55;;;9.60;99.90;;;;;;5044159;28;20055;-69
2021/05/26 02:32:38;;;;;;;4.95;1.25;;;9.60;99.90;;;;;;5043464;28;20084;-70
2021/05/26 02:35:06;;;;;;;8.65;1.55;;;9.60;99.90;;;;;;5042720;28;20119;-69
2021/05/26 02:37:32;;;;;;;3.47;1.35;;;9.60;99.90;;;;;;5044301;28;20059;-69
2021/05/26 02:39:59;;;;;;;3.72;1.40;;;9.50;99.90;;;;;;5042531;28;20057;-70
2021/05/26 02:42:25;;;;;;;6.65;1.85;;;9.50;99.90;;;;;;5045145;28;20048;-69
2021/05/26 02:44:52;;;;;;;4.18;1.70;;;9.50;99.90;;;;;;5043546;28;20059;-69
2021/05/26 02:47:19;;;;;;;4.50;1.17;;;9.40;99.90;;;;;;5040268;28;20052;-69
2021/05/26 02:49:46;;;;;;;5.82;1.23;;;9.50;99.90;;;;;;5044992;28;20052;-70
2021/05/26 02:52:13;;;;;;;3.88;1.27;;;9.50;99.90;;;;;;5043700;28;20060;-69
2021/05/26 02:54:39;;;;;;;3.55;1.40;;;9.50;99.90;;;;;;5042589;28;20049;-69
2021/05/26 02:57:06;;;;;;;7.50;1.60;;;9.50;99.90;;;;;;5043229;28;21448;-69
2021/05/26 02:59:33;;;;;;;5.38;1.45;;;9.40;99.90;;;;;;5042651;28;20052;-69
2021/05/26 03:02:00;;;;;;;5.15;1.35;;;9.40;99.90;;;;;;5040777;28;20053;-69
2021/05/26 03:04:26;;;;;;;5.35;1.67;;;9.40;99.90;;;;;;5045506;28;20052;-69
2021/05/26 03:06:54;;;;;;;4.95;1.63;;;9.40;99.90;;;;;;5044888;28;20040;-69
2021/05/26 03:09:20;;;;;;;6.82;1.95;;;9.40;99.90;;;;;;5043771;28;20053;-70
2021/05/26 03:11:47;;;;;;;7.50;1.50;;;9.40;99.90;;;;;;5043316;28;20051;-69
2021/05/26 03:14:13;;;;;;;7.32;2.17;;;9.40;99.90;;;;;;5044850;28;20075;-70
2021/05/26 03:16:41;;;;;;;3.33;1.08;;;9.50;99.90;;;;;;5040247;28;20459;-69
2021/05/26 03:19:08;;;;;;;3.83;1.20;;;9.50;99.90;;;;;;5042448;28;20048;-70
2021/05/26 03:21:34;;;;;;;6.13;1.70;;;9.50;99.90;;;;;;5042941;28;21572;-69
2021/05/26 03:24:02;;;;;;;5.63;1.75;;;9.50;99.90;;;;;;5044492;28;20078;-69
2021/05/26 03:26:29;;;;;;;3.17;1.40;;;9.40;99.90;;;;;;5045643;28;20509;-69
2021/05/26 03:28:56;;;;;;;5.22;1.38;;;9.50;99.90;;;;;;5043140;28;20048;-69
2021/05/26 03:31:22;;;;;;;7.05;1.52;;;9.50;99.90;;;;;;5045021;28;20060;-70
2021/05/26 03:33:49;;;;;;;6.82;1.30;;;9.60;99.90;;;;;;5041940;28;21067;-69
2021/05/26 03:36:15;;;;;;;4.55;1.40;;;9.60;99.90;;;;;;5042687;28;20460;-69
2021/05/26 03:38:42;;;;;;;5.32;1.23;;;9.50;99.90;;;;;;5044242;28;20050;-70
2021/05/26 03:41:09;;;;;;;6.97;1.58;;;9.60;99.90;;;;;;5043441;28;20063;-69
2021/05/26 03:43:36;;;;;;;5.82;1.30;;;9.60;99.90;;;;;;5045374;28;20579;-70
2021/05/26 03:46:02;;;;;;;4.53;1.35;;;9.60;99.90;;;;;;5046281;28;20048;-69
2021/05/26 03:48:29;;;;;;;5.68;2.00;;;9.50;99.90;;;;;;5049274;28;20044;-69
2021/05/26 03:50:56;;;;;;;4.50;1.52;;;9.50;99.90;;;;;;5045013;28;20049;-70
2021/05/26 03:53:22;;;;;;;8.32;1.60;;;9.50;99.90;;;;;;5045375;28;20707;-69
2021/05/26 03:55:49;;;;;;;6.82;1.75;;;9.50;99.90;;;;;;5047142;28;20053;-69
2021/05/26 03:58:17;;;;;;;3.33;1.27;;;9.50;99.90;;;;;;5048291;28;20044;-70
2021/05/26 04:00:43;;;;;;;5.70;1.45;;;9.50;99.90;;;;;;5058420;28;20044;-69
2021/05/26 04:03:10;;;;;;;7.10;1.67;;;9.50;99.90;;;;;;5047185;28;20055;-70
2021/05/26 04:05:37;;;;;;;4.72;1.50;;;9.50;99.90;;;;;;5044201;28;20048;-71
2021/05/26 04:08:04;;;;;;;10.07;2.45;;;9.50;99.90;;;;;;5046000;28;20497;-69
2021/05/26 04:10:30;;;;;;;4.28;1.60;;;9.50;99.90;;;;;;5047806;28;20997;-71
2021/05/26 04:12:57;;;;;;;9.35;1.60;;;9.50;99.90;;;;;;5048868;28;20048;-70
2021/05/26 04:15:24;;;;;;;5.72;1.73;;;9.60;99.90;;;;;;5048453;28;20056;-71
2021/05/26 04:17:51;;;;;;;4.65;1.55;;;9.50;99.90;;;;;;5040948;28;20044;-70
2021/05/26 04:20:17;;;;;;;7.13;1.52;;;9.50;99.90;;;;;;5043810;28;20059;-71
2021/05/26 04:22:44;;;;;;;9.27;1.80;;;9.50;99.90;;;;;;5047973;28;20101;-71
2021/05/26 04:25:10;;;;;;;8.15;1.50;;;9.50;99.90;;;;;;5044582;28;20047;-70
2021/05/26 04:27:37;;;;;;;5.00;1.45;;;9.50;99.90;;;;;;5042703;28;20063;-70
2021/05/26 04:30:05;;;;;;;3.33;1.40;;;9.60;99.90;;;;;;5044509;28;20110;-70
2021/05/26 04:32:33;;;;;;;5.28;1.50;;;9.60;99.90;;;;;;5049028;28;20800;-71
2021/05/26 04:34:59;;;;;;;7.38;1.50;;;9.60;99.90;;;;;;5049516;28;20916;-69
2021/05/26 04:37:26;;;;;;;4.55;1.58;;;9.60;99.90;;;;;;5044041;28;20048;-70
2021/05/26 04:39:53;;;;;;;4.45;1.50;;;9.60;99.90;;;;;;5046718;28;20101;-70
2021/05/26 04:42:20;;;;;;;4.88;1.58;;;9.50;99.90;;;;;;5047959;28;20609;-71
2021/05/26 04:44:47;;;;;;;2.90;1.38;;;9.50;99.90;;;;;;5049656;28;20829;-70
2021/05/26 04:47:13;;;;;;;6.05;1.95;;;9.60;99.90;;;;;;5043459;28;20052;-69
2021/05/26 04:49:41;;;;;;;5.35;1.60;;;9.60;99.90;;;;;;5046440;28;20040;-70
2021/05/26 04:52:07;;;;;;;6.28;1.60;;;9.60;99.90;;;;;;5047847;28;20125;-70
2021/05/26 04:54:34;;;;;;;4.85;1.67;;;9.60;99.90;;;;;;5047066;28;20074;-69
2021/05/26 04:57:01;;;;;;;4.97;1.40;;;9.60;99.90;;;;;;5044598;28;20052;-70
2021/05/26 04:59:27;;;;;;;6.20;1.77;;;9.60;99.90;;;;;;5043625;28;20117;-69
2021/05/26 05:01:54;;;;;;;5.82;1.60;;;9.60;99.90;;;;;;5048738;28;20560;-69
2021/05/26 05:04:21;;;;;;;7.05;1.92;;;9.60;99.90;;;;;;5048130;28;20052;-70
2021/05/26 05:06:48;;;;;;;7.00;1.60;;;9.60;99.90;;;;;;5046183;28;20424;-69
2021/05/26 05:09:15;;;;;;;7.35;1.73;;;9.50;99.90;;;;;;5043468;28;20043;-70
2021/05/26 05:11:41;;;;;;;5.70;1.60;;;9.40;99.90;;;;;;5044534;28;20937;-70
2021/05/26 05:14:08;;;;;;;6.72;2.00;;;9.40;99.90;;;;;;5047617;28;20077;-69
2021/05/26 05:16:34;;;;;;;4.72;1.60;;;9.40;99.90;;;;;;5045764;28;20071;-69
2021/05/26 05:19:01;;;;;;;;;;;9.40;99.90;;;;;;5044792;28;20133;-69
2021/05/26 05:21:27;;;;;;;6.50;1.65;;;9.40;99.90;;;;;;5042831;28;19924;-69
2021/05/26 05:23:55;;;;;;;6.65;1.80;;;9.30;99.90;;;;;;5044940;28;20048;-71
2021/05/26 05:26:21;;;;;;;10.57;2.40;;;9.30;99.90;;;;;;5048608;28;20053;-70
2021/05/26 05:28:48;;;;;;;7.63;1.85;;;9.20;99.90;;;;;;5045917;28;20048;-71
2021/05/26 05:31:15;;;;;;;6.28;1.80;;;9.30;99.90;;;;;;5042766;28;20887;-70
2021/05/26 05:33:41;;;;;;;3.47;1.52;;;9.30;99.90;;;;;;5047396;28;20048;-71
2021/05/26 05:36:09;;;;;;;4.28;1.70;;;9.30;99.90;;;;;;5048956;28;20048;-70
2021/05/26 05:38:36;;;;;;;5.60;1.92;;;9.30;99.90;;;;;;5043659;28;20048;-70
2021/05/26 05:41:03;;;;;;;6.53;1.90;;;9.40;99.90;;;;;;5044368;28;20048;-70
2021/05/26 05:43:30;;;;;;;3.92;1.40;;;9.50;99.90;;;;;;5044740;28;20897;-70
2021/05/26 05:45:57;;;;;;;6.63;2.03;;;9.50;99.90;;;;;;5047014;28;20075;-70
2021/05/26 05:48:23;;;;;;;7.53;2.40;;;9.50;99.90;;;;;;5044404;28;20721;-70
2021/05/26 05:50:50;;;;;;;7.75;2.20;;;9.60;99.90;;;;;;5047462;28;20049;-70
2021/05/26 05:53:19;;;;;;;5.30;1.90;;;9.70;99.90;;;;;;5043116;28;20098;-70
2021/05/26 05:55:46;;;;;;;4.32;1.70;;;9.70;99.90;;;;;;5041123;28;20060;-71
2021/05/26 05:58:14;;;;;;;4.68;1.92;;;9.70;99.90;;;;;;5041457;28;20461;-70
2021/05/26 06:00:41;;;;;;;5.25;1.67;;;9.80;99.90;;;;;;5048217;28;20067;-70
2021/05/26 06:03:07;;;;;;;5.22;2.20;;;9.80;99.90;;;;;;5049767;28;20048;-70
2021/05/26 06:05:34;;;;;;;8.90;1.85;;;9.90;99.90;;;;;;5043137;28;20044;-69
2021/05/26 06:08:00;;;;;;;4.20;1.60;;;9.90;99.90;;;;;;5043057;28;20662;-70
2021/05/26 06:10:27;;;;;;;6.03;1.90;;;10.00;99.90;;;;;;5043101;28;20058;-72
2021/05/26 06:12:56;;;;;;;6.95;1.80;;;10.00;99.90;;;;;;5044881;28;20048;-71
2021/05/26 06:15:23;;;;;;;6.28;2.13;;;10.10;99.90;;;;;;5043119;28;20583;-70
2021/05/26 06:17:50;;;;;;;3.60;1.92;;;10.10;99.90;;;;;;5042991;28;20129;-70
2021/05/26 06:20:17;;;;;;;6.10;1.95;;;10.20;99.90;;;;;;5049304;28;20048;-70
2021/05/26 06:22:45;;;;;;;4.53;1.80;;;10.10;99.90;;;;;;5044399;28;20139;-72
2021/05/26 06:25:13;;;;;;;3.88;1.63;;;10.20;99.90;;;;;;5045599;28;20064;-71
2021/05/26 06:27:39;;;;;;;5.50;1.70;;;10.20;99.90;;;;;;5042957;28;20054;-71
2021/05/26 06:30:07;;;;;;;6.15;1.65;;;10.30;99.90;;;;;;5047372;28;20107;-70
2021/05/26 06:32:35;;;;;;;4.60;1.80;;;10.30;99.90;;;;;;5042529;28;20070;-71
2021/05/26 06:35:02;;;;;;;7.70;1.90;;;10.30;99.90;;;;;;5044719;28;20040;-68
2021/05/26 06:37:28;;;;;;;7.05;2.00;;;10.30;99.90;;;;;;5041302;28;20894;-72
2021/05/26 06:39:55;;;;;;;9.85;1.83;;;10.30;99.90;;;;;;5043876;28;20052;-70
2021/05/26 06:42:21;;;;;;;4.85;1.98;;;10.30;99.90;;;;;;5048892;28;20504;-71
2021/05/26 06:44:48;;;;;;;8.45;2.03;;;10.30;99.90;;;;;;5043091;28;20060;-69
2021/05/26 06:47:15;;;;;;;7.30;1.92;;;10.30;99.90;;;;;;5042565;28;20048;-69
2021/05/26 06:49:42;;;;;;;9.07;2.25;;;10.30;99.90;;;;;;5044734;28;20045;-70
2021/05/26 06:52:09;;;;;;;9.05;2.65;;;10.40;99.90;;;;;;5047424;28;20047;-70
2021/05/26 06:54:35;;;;;;;5.75;2.13;;;10.40;99.90;;;;;;5053766;28;20060;-71
2021/05/26 06:57:02;;;;;;;3.95;1.70;;;10.40;99.90;;;;;;5054685;28;20044;-69
2021/05/26 06:59:28;;;;;;;13.40;2.13;;;10.50;99.90;;;;;;5057051;28;20059;-69
2021/05/26 07:01:55;;;;;;;7.20;2.17;;;10.50;99.90;;;;;;5055076;28;20052;-70
2021/05/26 07:04:21;;;;;;;6.82;1.90;;;10.60;99.90;;;;;;5053202;28;20060;-69
2021/05/26 07:06:49;;;;;;;;;;;10.70;99.90;;;;;;5056226;28;20106;-69
2021/05/26 07:09:15;;;;;;;3.38;1.63;;;10.70;99.90;;;;;;5054945;28;19978;-69
2021/05/26 07:11:42;;;;;;;6.68;1.90;;;10.70;99.90;;;;;;5055169;28;20059;-69
2021/05/26 07:14:09;;;;;;;6.28;2.20;;;10.60;99.90;;;;;;5053119;28;20048;-70
2021/05/26 07:16:35;;;;;;;6.88;2.28;;;10.70;99.90;;;;;;5049211;28;20056;-70
2021/05/26 07:19:02;;;;;;;7.93;2.92;;;10.80;99.90;;;;;;5058455;28;20083;-69
2021/05/26 07:21:28;;;;;;;8.35;2.50;;;10.90;99.90;;;;;;5060397;28;20048;-70
2021/05/26 07:23:56;;;;;;;5.07;2.15;;;10.90;99.90;;;;;;5057742;28;20057;-69
2021/05/26 07:26:23;;;;;;;5.40;1.83;;;10.90;99.90;;;;;;5058901;28;20470;-69
2021/05/26 07:28:50;;;;;;;5.65;1.80;;;10.90;99.90;;;;;;5059112;28;20090;-70
2021/05/26 07:31:16;;;;;;;4.22;1.73;;;10.90;99.90;;;;;;5058668;28;20059;-70
2021/05/26 07:33:43;;;;;;;6.15;1.88;;;11.00;99.90;;;;;;5059956;28;20447;-70
2021/05/26 07:36:10;;;;;;;8.90;2.10;;;11.00;99.90;;;;;;5059839;28;20438;-69
2021/05/26 07:38:36;;;;;;;6.13;1.50;;;11.10;99.90;;;;;;5054846;28;20048;-69
2021/05/26 07:41:04;;;;;;;4.50;1.40;;;11.10;99.90;;;;;;5055836;28;20450;-72
2021/05/26 07:43:32;;;;;;;8.00;1.70;;;11.20;99.90;;;;;;5058588;28;20382;-69
2021/05/26 07:45:59;;;;;;;5.95;1.30;;;11.30;99.90;;;;;;5060631;28;20109;-70
2021/05/26 07:48:26;;;;;;;4.63;1.40;;;11.30;99.90;;;;;;5057159;28;20456;-70
2021/05/26 07:50:52;;;;;;;5.45;1.25;;;11.40;99.90;;;;;;5057965;28;20055;-70
2021/05/26 07:53:19;;;;;;;5.53;1.38;;;11.50;99.90;;;;;;5056908;28;20505;-69
2021/05/26 07:55:46;;;;;;;7.55;2.25;;;11.50;99.90;;;;;;5055886;28;20052;-70
2021/05/26 07:58:13;;;;;;;5.70;1.45;;;11.50;99.90;;;;;;5052773;28;20981;-69
2021/05/26 08:00:40;;;;;;;6.07;1.60;;;11.50;99.90;;;;;;5057525;28;20056;-69
2021/05/26 08:03:06;;;;;;;4.57;1.20;;;11.40;99.90;;;;;;5057767;28;20048;-69
2021/05/26 08:05:33;;;;;;;4.78;1.35;;;11.40;99.90;;;;;;5058350;28;20048;-70
2021/05/26 08:08:00;;;;;;;6.25;2.40;;;11.50;99.90;;;;;;5056850;28;20056;-70
2021/05/26 08:10:26;;;;;;;4.40;1.67;;;11.60;99.90;;;;;;5057459;28;20044;-70
2021/05/26 08:12:53;;;;;;;8.00;1.60;;;11.60;99.90;;;;;;5056102;28;20052;-70
2021/05/26 08:15:21;;;;;;;;;;;11.60;99.90;;;;;;5059645;28;20052;-70
2021/05/26 08:17:48;;;;;;;9.07;1.58;;;11.80;99.90;;;;;;5057398;28;19923;-70
2021/05/26 08:20:15;;;;;;;4.93;1.17;;;11.80;99.90;;;;;;5060329;28;20052;-70
2021/05/26 08:22:41;;;;;;;4.80;1.38;;;11.90;99.90;;;;;;5056856;28;20075;-69
2021/05/26 08:25:09;;;;;;;7.47;1.52;;;11.80;99.90;;;;;;5058577;28;20059;-70
2021/05/26 08:27:36;;;;;;;3.53;1.25;;;11.60;99.90;;;;;;5059091;28;20135;-70
2021/05/26 08:30:05;;;;;;;4.15;1.25;;;11.50;99.90;;;;;;5056761;28;20047;-70
2021/05/26 08:32:33;;;;;;;6.07;1.48;;;11.40;99.90;;;;;;5058723;28;20509;-70
2021/05/26 08:35:00;;;;;;;4.78;1.30;;;11.40;99.90;;;;;;5058949;28;20052;-71
2021/05/26 08:37:26;;;;;;;5.25;1.48;;;11.30;99.90;;;;;;5055699;28;20466;-70
2021/05/26 08:39:53;;;;;;;4.78;1.70;;;11.30;99.90;;;;;;5057091;28;20531;-69
2021/05/26 08:42:20;;;;;;;4.13;1.33;;;11.30;99.90;;;;;;5058040;28;20048;-70
2021/05/26 08:44:47;;;;;;;5.80;1.35;;;11.20;99.90;;;;;;5059024;28;20067;-69
2021/05/26 08:47:17;;;;;;;5.13;1.48;;;11.20;99.90;;;;;;5056888;28;20530;-69
2021/05/26 08:49:46;;;;;;;3.83;1.20;;;11.20;99.90;;;;;;5058778;28;20052;-69
2021/05/26 08:52:15;;;;;;;3.47;1.10;;;11.10;99.90;;;;;;5056646;28;20497;-70
2021/05/26 08:54:44;;;;;;;4.50;1.63;;;11.20;99.90;;;;;;5060398;28;20048;-70
2021/05/26 08:57:11;;;;;;;6.13;1.20;;;11.30;99.90;;;;;;5057536;28;20091;-70
2021/05/26 08:59:38;;;;;;;1.90;1.15;;;11.40;99.90;;;;;;5054989;28;20079;-70
2021/05/26 09:02:05;;;;;;;6.35;1.27;;;11.40;99.90;;;;;;5059731;28;20390;-70
2021/05/26 09:04:34;;;;;;;4.25;1.52;;;11.40;99.90;;;;;;5056944;28;20070;-70
2021/05/26 09:07:15;;;;;;;4.63;1.10;;;11.60;99.90;;;;;;5055688;28;20055;-70
2021/05/26 09:09:50;;;;;;;3.95;1.02;;;11.80;99.90;;;;;;5059828;28;20045;-70
2021/05/26 09:12:25;;;;;;;5.40;0.95;;;11.90;99.90;;;;;;5058001;28;20048;-70
2021/05/26 09:14:53;;;;;;;2.78;0.90;;;11.90;99.90;;;;;;5055885;28;20052;-70
2021/05/26 09:17:19;;;;;;;3.13;0.95;;;12.10;99.90;;;;;;5057438;28;20056;-70
2021/05/26 09:19:46;;;;;;;1.60;0.70;;;12.20;99.90;;;;;;5057439;28;20424;-70
2021/05/26 09:22:15;;;;;;;3.33;1.38;;;12.10;99.90;;;;;;5057792;28;20048;-69
2021/05/26 09:24:42;;;;;;;2.80;1.02;;;12.10;99.90;;;;;;5054477;28;20044;-70
2021/05/26 09:27:10;;;;;;;2.75;0.85;;;12.40;99.90;;;;;;5058046;28;20126;-69
2021/05/26 09:29:40;;;;;;;2.25;0.90;;;12.30;99.90;;;;;;5057157;28;20052;-70
2021/05/26 09:32:26;;;;;;;5.65;1.25;;;12.20;99.90;;;;;;5056942;28;20736;-70
2021/05/26 09:34:54;;;;;;;4.70;0.93;;;12.20;99.90;;;;;;5055300;28;20052;-70
2021/05/26 09:37:23;;;;;;;3.65;1.35;;;12.00;99.90;;;;;;5055481;28;20056;-70
2021/05/26 09:39:51;;;;;;;2.45;1.00;;;11.80;99.90;;;;;;5056886;28;20051;-70
2021/05/26 09:42:27;;;;;;;2.05;1.02;;;11.80;99.90;;;;;;5056732;28;20059;-70
2021/05/26 09:45:04;;;;;;;7.85;1.40;;;11.70;99.90;;;;;;5057578;28;20062;-70
2021/05/26 09:47:36;;;;;;;2.55;1.52;;;11.60;99.90;;;;;;5055107;28;20181;-70
2021/05/26 09:50:37;;;;;;;4.22;1.13;;;11.60;99.90;;;;;;5055852;28;20500;-70
2021/05/26 09:53:08;;;;;;;5.82;1.25;;;11.50;99.90;;;;;;5057436;28;20060;-69
2021/05/26 09:55:36;;;;;;;3.28;1.27;;;11.40;99.90;;;;;;5057469;28;20100;-69
2021/05/26 09:58:04;;;;;;;4.55;0.85;;;11.30;99.90;;;;;;5056085;28;20083;-70
2021/05/26 10:00:32;;;;;;;3.95;1.00;;;11.40;99.90;;;;;;5056321;28;20063;-70
2021/05/26 10:02:59;;;;;;;5.15;1.10;;;11.50;99.90;;;;;;5057865;28;20052;-69
2021/05/26 10:05:26;;;;;;;0.68;0.50;;;11.50;99.90;;;;;;5058627;28;20059;-69
2021/05/26 10:07:54;;;;;;;2.33;0.90;;;11.60;99.90;;;;;;5056392;28;20052;-70
2021/05/26 10:10:24;;;;;;;1.08;0.70;;;11.80;99.90;;;;;;5055086;28;20052;-69
2021/05/26 10:12:54;;;;;;;1.98;0.60;;;12.00;99.90;;;;;;5057277;28;20048;-70
2021/05/26 10:15:22;;;;;;;2.30;1.00;;;12.20;99.90;;;;;;5054713;28;20130;-69
2021/05/26 10:17:53;;;;;;;3.35;0.88;;;12.20;99.90;;;;;;5056062;28;20052;-70
2021/05/26 10:20:22;;;;;;;3.22;0.70;;;12.30;99.90;;;;;;5054761;28;20501;-70
2021/05/26 10:22:51;;;;;;;3.50;0.77;;;12.40;99.90;;;;;;5056046;28;20051;-70
2021/05/26 10:25:20;;;;;;;1.98;0.73;;;12.40;99.90;;;;;;5053343;28;20055;-70
2021/05/26 10:27:51;;;;;;;1.67;0.68;;;12.50;99.90;;;;;;5056055;28;20373;-69
2021/05/26 10:30:19;;;;;;;1.42;0.52;;;12.40;99.90;;;;;;5057051;28;20067;-69
2021/05/26 10:32:52;;;;;;;3.15;0.90;;;12.10;99.90;;;;;;5055020;28;20055;-69
2021/05/26 10:35:20;;;;;;;3.20;0.70;;;12.00;99.90;;;;;;5057393;28;20206;-70
2021/05/26 10:37:55;;;;;;;2.28;0.80;;;12.10;99.90;;;;;;5054547;28;21011;-70
2021/05/26 10:40:41;;;;;;;4.47;0.82;;;11.90;99.90;;;;;;5054045;28;20547;-69
2021/05/26 10:43:31;;;;;;;2.15;0.60;;;11.90;99.90;;;;;;5054592;28;20056;-69
2021/05/26 10:45:59;;;;;;;2.58;0.98;;;11.80;99.90;;;;;;5054369;28;20062;-69
2021/05/26 10:49:03;;;;;;;1.50;0.60;;;11.80;99.90;;;;;;5052207;28;20052;-69
2021/05/26 10:52:08;;;;;;;1.27;0.55;;;11.80;99.90;;;;;;5056780;28;20056;-69
2021/05/26 10:54:56;;;;;;;2.72;0.68;;;11.80;99.90;;;;;;5055257;28;20051;-69
2021/05/26 10:57:22;;;;;;;2.70;0.80;;;11.90;99.90;;;;;;5049337;28;20137;-69
2021/05/26 11:00:26;;;;;;;1.88;0.68;;;11.90;99.90;;;;;;5057707;28;20098;-69
2021/05/26 11:03:42;;;;;;;1.52;0.50;;;12.00;99.90;;;;;;5057996;28;20055;-69
2021/05/26 11:06:39;;;;;;;3.17;0.70;;;11.90;99.90;;;;;;5058088;28;20056;-69
2021/05/26 11:09:09;;;;;;;1.73;0.80;;;12.00;99.90;;;;;;5059543;28;20618;-69
2021/05/26 11:11:44;;;;;;;2.03;0.70;;;12.00;99.90;;;;;;5056737;28;20068;-69
2021/05/26 11:14:40;;;;;;;4.45;0.82;;;12.10;99.90;;;;;;5054629;28;20056;-69
2021/05/26 11:17:29;;;;;;;3.83;0.85;;;12.10;99.90;;;;;;5018292;28;20054;-69
2021/05/26 11:20:20;;;;;;;2.80;0.82;;;12.20;99.90;;;;;;5055492;28;20108;-69
2021/05/26 11:22:48;;;;;;;2.78;0.70;;;12.50;99.90;;;;;;5040558;28;20052;-69
2021/05/26 11:25:15;;;;;;;5.57;1.00;;;12.70;99.90;;;;;;5054461;28;20052;-69
2021/05/26 11:27:54;;;;;;;3.75;0.70;;;12.80;99.90;;;;;;5052748;28;20102;-69
2021/05/26 11:30:24;;;;;;;3.10;0.93;;;12.90;99.90;;;;;;5053976;28;20052;-70
2021/05/26 11:33:01;;;;;;;2.70;0.85;;;12.90;99.90;;;;;;5055060;28;20048;-70
2021/05/26 11:35:28;;;;;;;1.33;0.70;;;13.00;99.90;;;;;;5052619;28;20109;-69
2021/05/26 11:37:54;;;;;;;2.65;0.82;;;13.00;99.90;;;;;;5055870;28;20044;-69
2021/05/26 11:40:30;;;;;;;5.07;0.90;;;12.60;99.90;;;;;;5054474;28;20041;-69
2021/05/26 11:42:59;;;;;;;1.15;0.68;;;12.40;99.90;;;;;;5053611;28;20060;-69
2021/05/26 11:45:26;;;;;;;4.78;0.70;;;12.40;99.90;;;;;;5054046;28;20143;-70
2021/05/26 11:47:56;;;;;;;2.78;0.70;;;12.50;99.90;;;;;;5051658;28;20074;-69
2021/05/26 11:50:30;;;;;;;2.05;0.75;;;12.70;99.90;;;;;;5054180;28;20054;-69
2021/05/26 11:53:16;;;;;;;1.95;0.68;;;12.70;99.90;;;;;;5054141;28;20048;-69
2021/05/26 11:55:48;;;;;;;4.40;0.90;;;12.80;99.90;;;;;;5052929;28;20055;-70
2021/05/26 11:58:28;;;;;;;1.90;0.82;;;12.90;99.90;;;;;;5051640;28;20098;-69
2021/05/26 12:01:01;;;;;;;4.28;0.82;;;12.80;99.90;;;;;;5055254;28;20040;-69
2021/05/26 12:03:31;;;;;;;2.08;0.80;;;12.70;99.90;;;;;;5052937;28;20051;-68
2021/05/26 12:05:58;;;;;;;1.13;0.70;;;12.70;99.90;;;;;;5059285;28;20443;-67
2021/05/26 12:08:26;;;;;;;1.95;0.60;;;12.60;99.90;;;;;;5060964;28;20648;-67
2021/05/26 12:10:54;;;;;;;1.70;0.68;;;12.70;99.90;;;;;;5060610;28;20515;-67
2021/05/26 12:13:22;;;;;;;2.58;0.70;;;12.80;99.90;;;;;;5057011;28;20059;-68
2021/05/26 12:15:49;;;;;;;2.83;1.20;;;12.80;99.90;;;;;;5058259;28;20401;-67
2021/05/26 12:18:16;;;;;;;1.42;0.70;;;12.80;99.90;;;;;;5056357;28;20052;-67
2021/05/26 12:20:45;;;;;;;1.27;0.50;;;12.80;99.90;;;;;;5057623;28;20070;-67
2021/05/26 12:23:13;;;;;;;1.85;0.70;;;12.90;99.90;;;;;;5057432;28;20052;-67
2021/05/26 12:25:42;;;;;;;3.70;0.93;;;13.20;99.90;;;;;;5055524;28;20052;-67
2021/05/26 12:28:19;;;;;;;2.25;0.63;;;13.50;99.90;;;;;;5055240;28;20109;-67
2021/05/26 12:30:47;;;;;;;0.90;0.45;;;13.70;99.90;;;;;;5055737;28;20059;-67
2021/05/26 12:33:20;;;;;;;1.23;0.52;;;13.80;99.90;;;;;;5058809;28;20036;-67
2021/05/26 12:36:01;;;;;;;1.80;0.50;;;14.00;99.90;;;;;;5056013;28;20171;-67
2021/05/26 12:38:28;;;;;;;2.80;0.60;;;13.80;99.90;;;;;;5056263;28;20045;-67
2021/05/26 12:40:55;;;;;;;1.77;0.50;;;13.60;99.90;;;;;;5056794;28;20041;-68
2021/05/26 12:43:30;;;;;;;3.30;0.50;;;13.40;99.90;;;;;;5057051;28;20068;-67
2021/05/26 12:45:57;;;;;;;0.65;0.28;;;13.40;99.90;;;;;;5056362;28;20140;-68
2021/05/26 12:48:30;;;;;;;0.82;0.40;;;13.60;99.90;;;;;;5054154;28;20052;-68
2021/05/26 12:51:00;;;;;;;2.83;0.95;;;13.50;99.90;;;;;;5056048;28;20048;-68
2021/05/26 12:53:33;;;;;;;1.30;0.65;;;13.50;99.90;;;;;;5055615;28;20153;-68
2021/05/26 12:56:00;;;;;;;0.88;0.40;;;13.50;99.90;;;;;;5051673;28;20558;-68
2021/05/26 12:58:27;;;;;;;1.15;0.43;;;13.50;99.90;;;;;;5055847;28;20494;-68
2021/05/26 13:01:06;;;;;;;0.45;0.45;;;13.50;99.90;;;;;;5052276;28;20055;-68
2021/05/26 13:03:36;;;;;;;0.93;0.35;;;13.30;99.90;;;;;;5057600;28;20059;-68